Time;durP1;ratioP1;P1;durP2;ratioP2;P2;SDS_P1;SDS_P2;PMS_P1;PMS_P2;Temp;Humidity;BMP_temperature;BMP_pressure;BME280_temperature;BME280_humidity;BME280_pressure;Samples;Min_cycle;Max_cycle;Signal;HPM_P1;HPM_P2
2021/09/12 00:01:57;;;;;;;16.70;10.57;;;;;;;18.57;87.09;101703.81;4973194;28;20106;-60
2021/09/12 00:04:24;;;;;;;16.05;9.60;;;;;;;18.56;87.15;101700.22;4973638;28;20046;-60
2021/09/12 00:06:52;;;;;;;16.52;10.00;;;;;;;18.56;87.04;101700.22;4973769;28;20165;-60
2021/09/12 00:09:20;;;;;;;18.67;11.10;;;;;;;18.55;86.73;101698.59;4973459;28;20047;-59
2021/09/12 00:11:47;;;;;;;14.23;9.60;;;;;;;18.55;86.91;101698.59;4973714;28;20129;-60
2021/09/12 00:14:15;;;;;;;21.38;11.05;;;;;;;18.51;86.18;101694.78;4971973;28;20042;-59
2021/09/12 00:16:43;;;;;;;20.35;11.02;;;;;;;18.49;86.35;101695.06;4973342;28;20075;-58
2021/09/12 00:19:11;;;;;;;15.15;9.80;;;;;;;18.51;86.13;101694.78;4973157;28;20034;-59
2021/09/12 00:21:38;;;;;;;17.95;8.75;;;;;;;18.52;84.82;101696.44;4973089;28;20053;-60
2021/09/12 00:24:06;;;;;;;15.13;8.38;;;;;;;18.43;84.69;101695.47;4973498;28;20049;-59
2021/09/12 00:26:34;;;;;;;14.52;7.70;;;;;;;18.40;84.35;101693.31;4972849;28;20046;-60
2021/09/12 00:29:02;;;;;;;13.98;8.77;;;;;;;18.43;83.99;101689.97;4973064;28;20043;-59
2021/09/12 00:31:29;;;;;;;15.10;8.50;;;;;;;18.41;83.12;101683.91;4972538;28;20094;-61
2021/09/12 00:33:57;;;;;;;15.55;7.90;;;;;;;18.37;83.20;101683.69;4972910;28;20059;-60
2021/09/12 00:36:25;;;;;;;13.77;8.20;;;;;;;18.35;82.74;101696.16;4973257;28;20035;-59
2021/09/12 00:38:52;;;;;;;13.40;7.60;;;;;;;18.34;82.28;101683.47;4972861;28;20057;-60
2021/09/12 00:41:20;;;;;;;12.10;6.82;;;;;;;18.34;82.50;101680.72;4972933;28;20417;-60
2021/09/12 00:43:47;;;;;;;14.85;7.63;;;;;;;18.35;82.17;101683.19;4972633;28;20065;-60
2021/09/12 00:46:15;;;;;;;10.40;6.30;;;;;;;18.39;82.82;101675.13;4972886;28;20086;-60
2021/09/12 00:48:44;;;;;;;11.02;8.02;;;;;;;18.39;82.30;101683.41;4971482;28;20110;-59
2021/09/12 00:51:12;;;;;;;13.80;7.63;;;;;;;18.37;82.16;101677.34;4972984;28;20054;-58
2021/09/12 00:53:40;;;;;;;9.65;6.15;;;;;;;18.39;83.00;101677.88;4972780;28;20039;-55
2021/09/12 00:56:09;;;;;;;16.63;8.25;;;;;;;18.36;82.12;101675.72;4971555;28;20113;-56
2021/09/12 00:58:38;;;;;;;11.57;6.35;;;;;;;18.33;82.55;101671.63;4988438;28;20052;-53
2021/09/12 01:01:05;;;;;;;17.52;8.75;;;;;;;18.36;81.70;101671.03;4990993;28;20043;-54
2021/09/12 01:03:33;;;;;;;15.82;7.75;;;;;;;18.28;80.98;101669.78;4991868;28;20050;-55
2021/09/12 01:06:01;;;;;;;19.63;6.95;;;;;;;18.23;81.00;101672.59;4992195;28;20117;-58
2021/09/12 01:08:29;;;;;;;11.57;6.50;;;;;;;18.19;80.25;101674.31;4992006;28;20074;-59
2021/09/12 01:10:57;;;;;;;13.18;6.43;;;;;;;18.19;80.78;101670.75;4992167;28;20035;-59
2021/09/12 01:13:25;;;;;;;11.45;6.53;;;;;;;18.19;79.04;101670.75;4990380;28;20038;-59
2021/09/12 01:15:52;;;;;;;14.10;6.82;;;;;;;18.15;77.58;101675.22;4992354;28;20042;-59
2021/09/12 01:18:20;;;;;;;11.40;5.65;;;;;;;18.10;77.23;101667.81;4992037;28;20093;-61
2021/09/12 01:20:47;;;;;;;12.30;5.72;;;;;;;18.07;77.30;101669.25;4992260;28;20053;-61
2021/09/12 01:23:15;;;;;;;14.35;5.65;;;;;;;18.05;76.78;101670.66;4992186;28;20145;-59
2021/09/12 01:25:42;;;;;;;11.10;5.13;;;;;;;18.02;76.24;101674.03;4995829;28;20085;-60
2021/09/12 01:28:10;;;;;;;10.70;5.13;;;;;;;18.00;76.30;101670.75;4995741;28;20050;-60
2021/09/12 01:30:38;;;;;;;10.98;5.00;;;;;;;18.00;76.86;101673.50;4994707;28;20043;-57
2021/09/12 01:33:05;;;;;;;15.18;5.28;;;;;;;18.01;76.66;101677.88;4995790;28;20062;-60
2021/09/12 01:35:33;;;;;;;15.20;5.38;;;;;;;17.98;75.93;101675.72;4995590;28;20644;-60
2021/09/12 01:38:00;;;;;;;11.05;5.15;;;;;;;17.98;76.86;101675.72;4995832;28;20070;-60
2021/09/12 01:40:28;;;;;;;13.52;4.95;;;;;;;17.98;76.75;101678.47;4995311;28;20053;-60
2021/09/12 01:42:58;;;;;;;14.40;5.60;;;;;;;18.00;76.97;101679.81;4995298;28;20100;-60
2021/09/12 01:45:26;;;;;;;10.85;5.68;;;;;;;17.93;76.04;101670.28;4995485;28;20042;-60
2021/09/12 01:47:59;;;;;;;9.63;5.15;;;;;;;17.93;77.28;101671.09;4995364;28;20043;-60
2021/09/12 01:50:28;;;;;;;11.32;5.65;;;;;;;17.96;77.44;101666.94;4995589;28;20054;-60
2021/09/12 01:52:56;;;;;;;12.10;5.60;;;;;;;17.93;76.87;101667.53;4995800;28;20047;-61
2021/09/12 01:55:24;;;;;;;13.13;5.57;;;;;;;17.86;76.02;101667.88;4995273;28;20125;-60
2021/09/12 01:57:51;;;;;;;12.00;5.57;;;;;;;17.84;75.99;101670.94;4995021;28;20046;-60
2021/09/12 02:00:19;;;;;;;10.45;4.93;;;;;;;17.84;76.05;101662.66;4995511;28;20054;-61
2021/09/12 02:02:46;;;;;;;11.70;5.85;;;;;;;17.82;75.57;101656.66;4995496;28;20046;-60
2021/09/12 02:05:15;;;;;;;11.57;5.85;;;;;;;17.78;75.74;101655.56;4995102;28;20524;-59
2021/09/12 02:07:43;;;;;;;13.23;5.72;;;;;;;17.75;75.91;101660.84;4995007;28;20416;-60
2021/09/12 02:10:10;;;;;;;11.10;5.80;;;;;;;17.73;76.05;101652.88;4995139;28;20465;-60
2021/09/12 02:12:38;;;;;;;9.10;4.80;;;;;;;17.72;75.85;101656.72;4995253;28;20038;-60
2021/09/12 02:15:06;;;;;;;12.32;5.65;;;;;;;17.70;75.89;101660.91;4995710;28;20038;-60
2021/09/12 02:17:34;;;;;;;12.60;5.40;;;;;;;17.69;76.03;101657.34;4995298;28;20046;-60
2021/09/12 02:20:02;;;;;;;12.57;6.82;;;;;;;17.66;75.54;101660.69;4995303;28;20401;-60
2021/09/12 02:22:30;;;;;;;14.93;6.40;;;;;;;17.63;75.82;101659.34;4994098;28;20609;-62
2021/09/12 02:24:57;;;;;;;9.98;5.38;;;;;;;17.61;76.32;101674.53;4994862;28;20046;-60
2021/09/12 02:27:25;;;;;;;11.77;6.25;;;;;;;17.59;76.28;101665.75;4994942;28;20493;-60
2021/09/12 02:29:53;;;;;;;10.75;5.93;;;;;;;17.61;76.66;101666.28;4993816;28;20298;-60
2021/09/12 02:32:20;;;;;;;13.98;5.95;;;;;;;17.64;76.56;101668.44;4994866;28;20527;-60
2021/09/12 02:34:48;;;;;;;15.93;7.10;;;;;;;17.60;76.48;101670.94;4994375;28;20133;-59
2021/09/12 02:37:16;;;;;;;14.65;5.80;;;;;;;17.58;76.45;101669.59;4994547;28;20125;-60
2021/09/12 02:39:43;;;;;;;11.57;5.93;;;;;;;17.55;75.94;101667.44;4994791;28;20043;-60
2021/09/12 02:42:11;;;;;;;11.30;5.97;;;;;;;17.51;75.81;101671.88;4994350;28;20509;-60
2021/09/12 02:44:38;;;;;;;14.95;5.40;;;;;;;17.50;76.39;101670.25;4995731;28;20042;-60
2021/09/12 02:47:07;;;;;;;12.55;5.97;;;;;;;17.48;76.50;101673.28;4997316;28;20106;-60
2021/09/12 02:49:35;;;;;;;11.32;5.72;;;;;;;17.46;76.29;101670.84;4996993;28;20510;-62
2021/09/12 02:52:03;;;;;;;15.40;6.18;;;;;;;17.45;76.61;101673.88;4998867;28;20049;-60
2021/09/12 02:54:31;;;;;;;12.07;5.50;;;;;;;17.45;76.90;101677.47;4998227;28;20042;-61
2021/09/12 02:56:58;;;;;;;11.93;5.78;;;;;;;17.45;76.65;101676.66;4998735;28;20212;-60
2021/09/12 02:59:26;;;;;;;12.32;6.07;;;;;;;17.44;76.92;101683.28;4998278;28;20070;-60
2021/09/12 03:01:53;;;;;;;15.27;6.57;;;;;;;17.42;76.64;101672.53;4997448;28;20054;-61
2021/09/12 03:04:21;;;;;;;12.75;6.00;;;;;;;17.40;76.91;101671.19;4994782;28;20513;-61
2021/09/12 03:06:49;;;;;;;11.45;5.55;;;;;;;17.41;77.30;101673.66;4995196;28;20573;-61
2021/09/12 03:09:17;;;;;;;9.25;5.13;;;;;;;17.42;77.26;101674.47;4993976;28;20088;-59
2021/09/12 03:11:45;;;;;;;9.45;5.38;;;;;;;17.40;76.63;101680.28;4993018;28;20074;-60
2021/09/12 03:14:12;;;;;;;9.55;5.50;;;;;;;17.40;77.40;101676.72;4994391;28;20048;-60
2021/09/12 03:16:40;;;;;;;11.90;6.28;;;;;;;17.37;76.76;101680.88;4994188;28;20400;-61
2021/09/12 03:19:07;;;;;;;12.10;5.57;;;;;;;17.35;76.97;101674.00;4993999;28;20042;-60
2021/09/12 03:21:35;;;;;;;10.65;6.07;;;;;;;17.34;76.87;101678.72;4993892;28;20053;-60
2021/09/12 03:24:03;;;;;;;12.18;6.75;;;;;;;17.34;76.92;101684.22;4994729;28;20038;-60
2021/09/12 03:26:30;;;;;;;11.00;5.45;;;;;;;17.36;77.03;101678.41;4993527;28;20049;-61
2021/09/12 03:28:58;;;;;;;13.38;6.20;;;;;;;17.33;76.64;101681.75;4993565;28;20121;-61
2021/09/12 03:31:26;;;;;;;13.10;6.68;;;;;;;17.30;75.99;101676.81;4993416;28;20038;-60
2021/09/12 03:33:53;;;;;;;11.50;5.57;;;;;;;17.24;76.39;101681.56;4993932;28;20054;-60
2021/09/12 03:36:21;;;;;;;10.98;6.30;;;;;;;17.23;76.53;101668.91;4993400;28;20040;-60
2021/09/12 03:38:48;;;;;;;12.35;6.55;;;;;;;17.22;76.77;101664.50;4975779;28;20061;-60
2021/09/12 03:41:16;;;;;;;10.23;5.28;;;;;;;17.25;77.20;101674.94;4992256;28;20066;-60
2021/09/12 03:43:44;;;;;;;11.85;6.20;;;;;;;17.24;76.38;101676.88;4992010;28;20053;-61
2021/09/12 03:46:11;;;;;;;13.32;6.45;;;;;;;17.20;76.11;101680.50;4975942;28;20402;-60
2021/09/12 03:48:39;;;;;;;11.82;6.60;;;;;;;17.14;75.97;101667.91;4992963;28;20049;-61
2021/09/12 03:51:07;;;;;;;11.75;5.68;;;;;;;17.11;76.59;101666.56;4993171;28;20464;-61
2021/09/12 03:53:34;;;;;;;15.95;6.72;;;;;;;17.07;75.85;101667.41;4992946;28;20043;-60
2021/09/12 03:56:02;;;;;;;12.57;6.70;;;;;;;17.02;75.88;101674.63;4993062;28;20465;-60
2021/09/12 03:58:29;;;;;;;13.73;6.55;;;;;;;16.98;75.55;101669.97;4992037;28;20065;-61
2021/09/12 04:00:57;;;;;;;14.23;6.18;;;;;;;16.97;76.38;101671.91;4993042;28;20512;-61
2021/09/12 04:03:25;;;;;;;12.23;6.53;;;;;;;16.97;76.24;101663.66;4992883;28;20408;-61
2021/09/12 04:05:53;;;;;;;15.35;6.75;;;;;;;16.95;75.48;101671.38;4992623;28;20054;-61
2021/09/12 04:08:20;;;;;;;12.68;6.03;;;;;;;16.95;76.00;101668.63;4992714;28;20044;-59
2021/09/12 04:10:48;;;;;;;11.95;6.43;;;;;;;16.94;75.86;101667.00;4992794;28;20416;-61
2021/09/12 04:13:15;;;;;;;11.07;6.30;;;;;;;16.95;75.97;101668.63;4992739;28;20409;-61
2021/09/12 04:15:43;;;;;;;11.98;5.47;;;;;;;16.99;76.41;101666.94;4992983;28;20044;-61
2021/09/12 04:18:11;;;;;;;12.02;6.20;;;;;;;16.98;76.21;101670.81;4992462;28;20044;-61
2021/09/12 04:20:38;;;;;;;11.07;5.63;;;;;;;16.94;75.38;101672.50;4992671;28;20053;-61
2021/09/12 04:23:06;;;;;;;13.63;6.47;;;;;;;16.90;75.34;101673.38;4992529;28;20038;-61
2021/09/12 04:25:33;;;;;;;14.55;6.85;;;;;;;16.87;75.88;101677.53;4992523;28;20076;-60
2021/09/12 04:28:01;;;;;;;12.05;5.93;;;;;;;16.86;75.91;101673.16;4992594;28;20516;-60
2021/09/12 04:30:28;;;;;;;10.43;5.20;;;;;;;16.87;76.03;101674.78;4992648;28;20038;-62
2021/09/12 04:32:56;;;;;;;12.50;5.30;;;;;;;16.86;75.51;101675.91;4992368;28;20062;-60
2021/09/12 04:35:24;;;;;;;11.52;5.38;;;;;;;16.86;76.14;101677.81;4992102;28;20533;-60
2021/09/12 04:37:51;;;;;;;14.55;6.18;;;;;;;16.87;76.01;101684.97;4992280;28;20125;-60
2021/09/12 04:40:19;;;;;;;13.63;5.95;;;;;;;16.82;76.05;101680.34;4990988;28;20057;-60
2021/09/12 04:42:46;;;;;;;12.27;5.28;;;;;;;16.80;76.30;101688.06;4992505;28;20035;-60
2021/09/12 04:45:15;;;;;;;11.15;5.30;;;;;;;16.80;76.03;101685.28;4992549;28;20049;-61
2021/09/12 04:47:42;;;;;;;13.50;5.60;;;;;;;16.80;76.03;101686.13;4992547;28;20038;-61
2021/09/12 04:50:10;;;;;;;13.18;6.00;;;;;;;16.81;75.96;101695.19;4992019;28;20416;-60
2021/09/12 04:52:38;;;;;;;10.43;5.53;;;;;;;16.82;76.25;101689.41;4992339;28;20553;-61
2021/09/12 04:55:06;;;;;;;11.77;6.07;;;;;;;16.81;75.70;101697.94;4992211;28;20042;-60
2021/09/12 04:57:33;;;;;;;10.13;5.13;;;;;;;16.81;76.20;101698.78;4992065;28;20524;-60
2021/09/12 05:00:02;;;;;;;14.73;6.07;;;;;;;16.78;75.32;101698.50;4991610;28;20045;-61
2021/09/12 05:02:30;;;;;;;12.23;5.85;;;;;;;16.75;76.04;101701.81;4990968;28;20034;-61
2021/09/12 05:04:58;;;;;;;11.32;5.25;;;;;;;16.76;75.80;101700.72;4991396;28;20524;-61
2021/09/12 05:07:25;;;;;;;13.45;4.80;;;;;;;16.76;75.50;101706.22;4992068;28;20080;-61
2021/09/12 05:09:53;;;;;;;12.35;4.93;;;;;;;16.74;75.68;101702.91;4991763;28;20045;-60
2021/09/12 05:12:21;;;;;;;10.35;4.47;;;;;;;16.72;76.23;101699.66;4992110;28;20049;-59
2021/09/12 05:14:49;;;;;;;10.15;4.57;;;;;;;16.71;75.48;101698.00;4992153;28;20035;-59
2021/09/12 05:17:16;;;;;;;8.85;4.22;;;;;;;16.70;75.62;101701.88;4992087;28;20038;-58
2021/09/12 05:19:44;;;;;;;9.18;4.00;;;;;;;16.78;78.30;101709.50;4991527;28;20062;-59
2021/09/12 05:22:12;;;;;;;10.50;4.47;;;;;;;16.76;76.06;101704.31;4991877;28;20076;-60
2021/09/12 05:24:39;;;;;;;10.93;4.40;;;;;;;16.81;77.13;101704.28;4991914;28;20038;-60
2021/09/12 05:27:07;;;;;;;11.38;4.60;;;;;;;16.80;75.89;101705.38;4992001;28;20046;-58
2021/09/12 05:29:34;;;;;;;12.55;4.70;;;;;;;16.75;75.62;101710.09;4992221;28;20054;-60
2021/09/12 05:32:02;;;;;;;9.13;4.38;;;;;;;16.72;75.88;101708.72;4984767;28;20030;-58
2021/09/12 05:34:30;;;;;;;11.30;4.32;;;;;;;16.71;75.34;101709.00;4971998;28;20039;-59
2021/09/12 05:36:57;;;;;;;9.70;4.10;;;;;;;16.74;76.05;101709.28;4972059;28;20027;-60
2021/09/12 05:39:25;;;;;;;8.63;4.07;;;;;;;16.74;76.73;101708.41;4972289;28;20043;-60
2021/09/12 05:41:52;;;;;;;10.88;4.00;;;;;;;16.75;76.34;101710.91;4972367;28;20043;-60
2021/09/12 05:44:20;;;;;;;9.52;4.20;;;;;;;16.76;75.57;101711.72;4972257;28;20039;-59
2021/09/12 05:46:51;;;;;;;11.57;4.80;;;;;;;16.75;76.33;101710.09;4971815;28;20054;-60
2021/09/12 05:49:19;;;;;;;8.32;4.13;;;;;;;16.75;77.37;101710.91;4971848;28;20038;-60
2021/09/12 05:51:47;;;;;;;9.63;4.50;;;;;;;16.75;76.87;101716.41;4972252;28;20050;-60
2021/09/12 05:54:15;;;;;;;11.07;4.03;;;;;;;16.71;76.81;101715.31;4972118;28;20110;-59
2021/09/12 05:56:43;;;;;;;10.02;4.20;;;;;;;16.64;75.49;101719.53;4972139;28;20119;-58
2021/09/12 05:59:10;;;;;;;8.32;4.40;;;;;;;16.59;75.77;101726.69;4972024;28;20410;-59
2021/09/12 06:01:38;;;;;;;7.90;4.38;;;;;;;16.58;75.42;101716.81;4971811;28;20057;-58
2021/09/12 06:04:07;;;;;;;8.13;3.83;;;;;;;16.57;76.07;101715.19;4971567;28;20449;-58
2021/09/12 06:06:34;;;;;;;9.05;4.60;;;;;;;16.62;76.85;101722.56;4991107;28;20045;-60
2021/09/12 06:09:02;;;;;;;10.57;4.38;;;;;;;16.66;76.89;101720.06;4991658;28;20053;-60
2021/09/12 06:11:32;;;;;;;10.88;4.43;;;;;;;16.65;75.96;101727.50;4994698;28;20453;-59
2021/09/12 06:13:59;;;;;;;7.32;3.95;;;;;;;16.67;76.74;101714.28;4995042;28;20524;-60
2021/09/12 06:16:27;;;;;;;7.00;3.75;;;;;;;16.66;76.50;101720.06;4994571;28;20408;-60
2021/09/12 06:18:55;;;;;;;9.90;4.53;;;;;;;16.60;75.21;101720.09;4994447;28;20509;-60
2021/09/12 06:21:22;;;;;;;9.40;3.95;;;;;;;16.59;75.96;101723.94;4994484;28;20034;-60
2021/09/12 06:23:50;;;;;;;6.45;3.72;;;;;;;16.57;75.44;101728.94;4994882;28;20046;-60
2021/09/12 06:26:18;;;;;;;10.57;4.22;;;;;;;16.61;75.94;101732.75;4994739;28;20046;-59
2021/09/12 06:28:46;;;;;;;10.55;4.07;;;;;;;16.65;75.74;101740.44;4995009;28;20053;-60
2021/09/12 06:31:14;;;;;;;12.48;5.03;;;;;;;16.64;75.49;101733.28;4994377;28;20046;-56
2021/09/12 06:33:41;;;;;;;7.88;4.25;;;;;;;16.60;75.12;101741.31;4994336;28;20104;-59
2021/09/12 06:36:09;;;;;;;8.02;4.30;;;;;;;16.58;75.86;101738.81;4994639;28;20046;-60
2021/09/12 06:38:37;;;;;;;12.75;4.63;;;;;;;16.58;75.36;101743.50;4994283;28;20045;-59
2021/09/12 06:41:04;;;;;;;9.18;4.65;;;;;;;16.58;75.71;101744.31;4994303;28;20042;-60
2021/09/12 06:43:32;;;;;;;10.77;4.40;;;;;;;16.60;76.01;101742.13;4994442;28;20049;-60
2021/09/12 06:46:00;;;;;;;9.48;4.47;;;;;;;16.68;75.76;101748.13;4988542;28;20105;-59
2021/09/12 06:48:27;;;;;;;9.63;4.28;;;;;;;16.69;76.53;101744.25;4973815;28;20043;-62
2021/09/12 06:50:57;;;;;;;8.25;4.22;;;;;;;16.73;76.50;101734.31;4974714;28;20125;-61
2021/09/12 06:53:25;;;;;;;9.77;4.88;;;;;;;16.75;76.02;101732.09;4974563;28;20177;-61
2021/09/12 06:55:53;;;;;;;7.93;4.13;;;;;;;16.76;76.33;101731.81;4974335;28;20468;-61
2021/09/12 06:58:20;;;;;;;10.02;4.38;;;;;;;16.80;76.03;101732.09;4972909;28;20097;-61
2021/09/12 07:00:48;;;;;;;9.07;3.95;;;;;;;16.89;77.55;101719.34;4973823;28;20045;-58
2021/09/12 07:03:16;;;;;;;9.77;4.22;;;;;;;16.93;76.29;101727.84;4974239;28;20077;-58
2021/09/12 07:05:44;;;;;;;9.88;4.68;;;;;;;16.95;76.51;101720.94;4985394;28;20051;-56
2021/09/12 07:08:11;;;;;;;8.95;4.78;;;;;;;16.90;75.50;101726.50;4993799;28;20118;-58
2021/09/12 07:10:39;;;;;;;12.95;4.70;;;;;;;16.89;75.93;101727.63;4975705;28;20042;-57
2021/09/12 07:13:07;;;;;;;8.50;4.15;;;;;;;16.86;75.97;101722.69;4974008;28;20494;-51
2021/09/12 07:15:34;;;;;;;10.10;4.55;;;;;;;16.89;76.15;101726.78;4973186;28;20042;-59
2021/09/12 07:18:03;;;;;;;15.40;6.75;;;;;;;16.84;75.74;101724.91;4978545;28;20569;-57
2021/09/12 07:20:31;;;;;;;12.50;4.97;;;;;;;16.91;77.15;101724.56;4973738;28;20047;-59
2021/09/12 07:22:58;;;;;;;11.55;5.20;;;;;;;16.97;77.08;101723.41;4979987;28;20199;-59
2021/09/12 07:25:27;;;;;;;13.60;5.53;;;;;;;16.99;76.36;101726.69;4973864;28;20046;-57
2021/09/12 07:27:55;;;;;;;13.68;5.43;;;;;;;17.06;76.91;101712.59;4973706;28;20529;-59
2021/09/12 07:30:22;;;;;;;11.50;4.30;;;;;;;16.93;76.26;101727.84;4972800;28;20038;-59
2021/09/12 07:32:51;;;;;;;12.13;5.53;;;;;;;16.95;77.41;101726.44;4973452;28;20426;-57
2021/09/12 07:35:19;;;;;;;18.33;5.65;;;;;;;17.03;77.25;101712.06;4973513;28;20073;-59
2021/09/12 07:37:48;;;;;;;14.65;5.45;;;;;;;17.07;77.05;101715.03;4972949;28;20038;-58
2021/09/12 07:40:15;;;;;;;11.20;5.10;;;;;;;17.11;76.86;101718.06;4973285;28;20043;-58
2021/09/12 07:42:46;;;;;;;12.10;5.38;;;;;;;17.11;77.10;101723.56;4973552;28;20121;-60
2021/09/12 07:45:15;;;;;;;11.57;4.88;;;;;;;17.08;76.27;101719.47;4973741;28;20046;-60
2021/09/12 07:47:43;;;;;;;9.43;4.15;;;;;;;17.03;77.27;101723.09;4973673;28;20051;-60
2021/09/12 07:50:11;;;;;;;14.20;4.22;;;;;;;17.08;77.48;101710.34;4973926;28;20063;-59
2021/09/12 07:52:43;;;;;;;12.93;4.07;;;;;;;17.14;77.35;101718.28;4974061;28;20057;-58
2021/09/12 07:55:12;;;;;;;10.75;4.45;;;;;;;17.09;76.39;101712.81;4973569;28;20494;-58
2021/09/12 07:57:41;;;;;;;10.82;4.60;;;;;;;17.02;76.78;101710.41;4973410;28;20035;-59
2021/09/12 08:00:09;;;;;;;12.40;4.70;;;;;;;16.99;76.91;101722.00;4988147;28;20041;-59
2021/09/12 08:02:40;;;;;;;12.32;5.15;;;;;;;16.98;77.31;101720.38;4973598;28;20046;-59
2021/09/12 08:05:10;;;;;;;10.52;4.40;;;;;;;16.98;77.69;101720.38;4981695;28;20057;-59
2021/09/12 08:07:38;;;;;;;10.65;4.80;;;;;;;17.01;77.69;101727.25;4993769;28;20400;-59
2021/09/12 08:10:06;;;;;;;8.75;4.15;;;;;;;17.02;78.06;101724.19;4993324;28;20408;-59
2021/09/12 08:12:33;;;;;;;12.90;4.90;;;;;;;17.20;78.42;101727.34;4993581;28;20425;-59
2021/09/12 08:15:01;;;;;;;10.02;4.28;;;;;;;17.27;78.25;101727.81;4992914;28;20392;-56
2021/09/12 08:17:29;;;;;;;8.32;4.03;;;;;;;17.32;78.60;101732.41;4993210;28;20069;-56
2021/09/12 08:19:57;;;;;;;8.07;4.15;;;;;;;17.34;77.45;101736.56;4991511;28;20042;-57
2021/09/12 08:22:24;;;;;;;10.70;3.58;;;;;;;17.41;78.51;101738.94;4992841;28;20047;-55
2021/09/12 08:24:52;;;;;;;10.32;4.30;;;;;;;17.40;77.52;101745.59;5007414;28;20035;-52
2021/09/12 08:27:20;;;;;;;14.07;6.00;;;;;;;17.31;77.35;101750.06;4992684;28;20045;-58
2021/09/12 08:29:48;;;;;;;10.02;3.90;;;;;;;17.29;77.97;101755.88;4992877;28;20531;-59
2021/09/12 08:32:15;;;;;;;4.15;2.50;;;;;;;17.26;78.41;101759.22;4995133;28;20058;-59
2021/09/12 08:34:43;;;;;;;9.85;4.28;;;;;;;17.30;78.29;101767.72;4995608;28;20074;-60
2021/09/12 08:37:11;;;;;;;12.90;4.55;;;;;;;17.43;78.09;101767.03;4996719;28;20043;-59
2021/09/12 08:39:38;;;;;;;6.88;2.92;;;;;;;17.39;78.33;101765.97;4995307;28;20057;-60
2021/09/12 08:42:06;;;;;;;6.05;2.90;;;;;;;17.49;78.69;101756.78;4993501;28;20042;-58
2021/09/12 08:44:34;;;;;;;11.35;5.60;;;;;;;17.48;77.54;101766.97;4993245;28;20050;-57
2021/09/12 08:47:02;;;;;;;14.63;6.38;;;;;;;17.37;76.91;101774.53;4992109;28;20092;-60
2021/09/12 08:49:30;;;;;;;14.00;5.63;;;;;;;17.38;77.74;101767.91;4992085;28;20069;-58
2021/09/12 08:51:58;;;;;;;10.30;4.75;;;;;;;17.39;77.88;101764.06;4991812;28;20049;-61
2021/09/12 08:54:25;;;;;;;8.50;3.25;;;;;;;17.53;78.64;101757.84;4992940;28;20121;-59
2021/09/12 08:56:53;;;;;;;10.60;4.00;;;;;;;17.62;78.28;101764.34;4993150;28;20038;-59
2021/09/12 08:59:28;;;;;;;13.93;5.18;;;;;;;17.63;77.65;101757.72;4965819;28;20121;-58
2021/09/12 09:01:57;;;;;;;13.27;6.05;;;;;;;17.59;77.52;101762.19;4992203;28;20452;-59
2021/09/12 09:04:29;;;;;;;11.10;6.05;;;;;;;17.56;77.67;101757.28;4991605;28;20038;-58
2021/09/12 09:07:03;;;;;;;11.90;5.80;;;;;;;17.54;77.72;101759.50;4991931;28;20081;-59
2021/09/12 09:09:50;;;;;;;14.00;6.68;;;;;;;17.57;77.93;101751.44;4991781;28;20042;-60
2021/09/12 09:12:38;;;;;;;15.45;5.72;;;;;;;17.60;77.99;101769.34;4991658;28;20052;-59
2021/09/12 09:15:16;;;;;;;10.60;6.40;;;;;;;17.55;77.91;101763.88;4991901;28;20093;-59
2021/09/12 09:17:46;;;;;;;13.48;7.28;;;;;;;17.48;77.47;101771.66;4991953;28;20050;-59
2021/09/12 09:20:19;;;;;;;9.93;5.25;;;;;;;17.53;78.19;101763.34;4964169;28;20051;-58
2021/09/12 09:22:49;;;;;;;12.23;5.38;;;;;;;17.46;77.79;101767.28;4990753;28;20134;-58
2021/09/12 09:25:20;;;;;;;8.02;3.50;;;;;;;17.58;78.12;101763.28;4990230;28;20121;-59
2021/09/12 09:28:03;;;;;;;9.07;3.08;;;;;;;17.61;78.98;101760.78;4991469;28;20031;-58
2021/09/12 09:30:33;;;;;;;10.38;5.65;;;;;;;17.62;77.75;101767.94;4991859;28;20532;-58
2021/09/12 09:33:13;;;;;;;14.38;6.95;;;;;;;17.63;77.68;101768.75;4991798;28;20069;-59
2021/09/12 09:36:02;;;;;;;13.15;7.03;;;;;;;17.66;77.43;101768.19;4967429;28;20051;-58
2021/09/12 09:38:32;;;;;;;15.05;7.30;;;;;;;17.61;77.17;101774.56;4991399;28;20563;-57
2021/09/12 09:41:11;;;;;;;7.65;3.30;;;;;;;17.66;77.63;101776.44;4991346;28;20405;-59
2021/09/12 09:43:53;;;;;;;14.77;6.75;;;;;;;17.61;77.58;101771.00;4991834;28;20049;-58
2021/09/12 09:46:33;;;;;;;15.88;7.90;;;;;;;17.57;77.47;101775.44;4993838;28;20394;-59
2021/09/12 09:49:29;;;;;;;12.90;5.90;;;;;;;17.58;77.79;101771.56;4995450;28;20038;-55
2021/09/12 09:51:58;;;;;;;;;;;;;;;17.57;77.62;101775.44;4994760;28;20120;-59
2021/09/12 09:54:31;;;;;;;11.27;5.10;;;;;;;17.70;78.53;101771.97;4995032;28;19926;-60
2021/09/12 09:57:00;;;;;;;9.43;3.42;;;;;;;17.84;78.39;101775.69;4994758;28;20050;-57
2021/09/12 09:59:29;;;;;;;12.00;5.28;;;;;;;17.96;77.55;101782.75;4995404;28;20409;-56
2021/09/12 10:01:57;;;;;;;11.48;5.50;;;;;;;17.92;77.80;101773.41;4995164;28;20046;-59
2021/09/12 10:04:28;;;;;;;9.38;4.63;;;;;;;18.00;77.12;101770.81;4994639;28;20504;-58
2021/09/12 10:06:57;;;;;;;13.38;6.70;;;;;;;17.92;77.02;101770.66;4994000;28;20090;-58
2021/09/12 10:09:24;;;;;;;10.10;6.28;;;;;;;17.81;77.17;101765.25;4994348;28;20046;-58
2021/09/12 10:11:55;;;;;;;13.15;7.00;;;;;;;17.76;77.40;101765.28;4995290;28;20158;-58
2021/09/12 10:14:28;;;;;;;9.95;5.38;;;;;;;17.74;77.69;101758.44;4993665;28;20493;-57
2021/09/12 10:16:56;;;;;;;22.80;7.65;;;;;;;17.70;77.85;101765.63;4993878;28;20042;-59
2021/09/12 10:19:33;;;;;;;9.32;4.07;;;;;;;17.77;78.26;101772.44;4994756;28;20078;-57
2021/09/12 10:22:07;;;;;;;8.85;4.43;;;;;;;17.79;78.27;101764.69;4984031;28;20050;-59
2021/09/12 10:24:35;;;;;;;13.63;7.15;;;;;;;17.74;77.84;101764.75;4992933;28;20556;-59
2021/09/12 10:28:08;;;;;;;10.93;6.13;;;;;;;17.73;78.33;101763.13;4994789;28;20386;-59
2021/09/12 10:30:43;;;;;;;12.35;6.93;;;;;;;17.73;78.24;101765.06;4953716;29;20510;-60
2021/09/12 10:33:16;;;;;;;15.82;7.55;;;;;;;17.70;78.50;101769.22;4953176;29;20062;-59
2021/09/12 10:35:51;;;;;;;13.88;7.60;;;;;;;17.73;78.18;101765.06;4937660;29;20118;-58
2021/09/12 10:38:32;;;;;;;16.35;8.18;;;;;;;17.70;78.78;101771.97;4953337;29;20048;-59
2021/09/12 10:41:02;;;;;;;18.90;9.18;;;;;;;17.68;79.24;101765.94;4953649;29;20063;-58
2021/09/12 10:43:30;;;;;;;13.65;7.90;;;;;;;17.67;79.24;101761.53;4953359;29;20130;-60
2021/09/12 10:46:07;;;;;;;18.08;8.18;;;;;;;17.68;79.39;101765.94;4953532;29;20450;-57
2021/09/12 10:48:51;;;;;;;13.35;7.20;;;;;;;17.72;79.42;101766.16;4953388;29;20529;-58
2021/09/12 10:51:19;;;;;;;16.25;9.95;;;;;;;17.74;79.34;101763.94;4953180;29;20101;-59
2021/09/12 10:53:55;;;;;;;16.02;10.15;;;;;;;17.74;78.94;101762.00;4952782;29;20466;-58
2021/09/12 10:56:25;;;;;;;17.33;9.73;;;;;;;17.73;79.25;101771.41;4952264;28;20410;-58
2021/09/12 10:59:00;;;;;;;16.50;9.32;;;;;;;17.75;79.60;101763.66;4953109;29;20043;-59
2021/09/12 11:01:29;;;;;;;14.57;9.90;;;;;;;17.77;78.96;101763.34;4953092;29;20051;-58
2021/09/12 11:03:59;;;;;;;17.50;10.15;;;;;;;17.81;79.07;101770.78;4937129;29;20677;-59
2021/09/12 11:06:32;;;;;;;14.32;8.02;;;;;;;17.91;78.95;101769.84;4967872;28;20054;-59
2021/09/12 11:09:01;;;;;;;12.43;8.00;;;;;;;17.98;78.50;101766.72;4992435;28;20052;-60
2021/09/12 11:11:29;;;;;;;13.90;9.18;;;;;;;18.07;78.23;101764.97;4993816;28;20121;-59
2021/09/12 11:13:58;;;;;;;19.08;11.82;;;;;;;18.03;76.50;101766.66;4976508;28;20038;-60
2021/09/12 11:16:26;;;;;;;15.85;11.63;;;;;;;17.99;75.50;101765.59;4993926;28;20768;-57
2021/09/12 11:18:59;;;;;;;16.65;10.70;;;;;;;17.98;75.42;101769.47;4993822;28;20050;-59
2021/09/12 11:21:42;;;;;;;15.55;8.82;;;;;;;18.05;75.87;101761.66;4993253;28;20129;-58
2021/09/12 11:24:14;;;;;;;19.05;11.65;;;;;;;18.08;75.84;101769.34;4993589;28;20049;-59
2021/09/12 11:26:46;;;;;;;17.23;10.85;;;;;;;18.11;76.07;101765.97;4991777;28;20050;-59
2021/09/12 11:29:24;;;;;;;22.25;13.77;;;;;;;18.16;76.33;101765.09;4285472;28;10000413;-59